createdAt,value
2023-01-28T00:01:26.843Z,3.04
2023-01-28T00:03:53.776Z,2.82
2023-01-28T00:06:20.783Z,2.67
2023-01-28T00:08:48.771Z,2.69
2023-01-28T00:11:15.706Z,2.68
2023-01-28T00:13:42.834Z,2.78
2023-01-28T00:16:10.074Z,2.86
2023-01-28T00:18:38.059Z,2.74
2023-01-28T00:21:12.712Z,2.79
2023-01-28T00:23:42.405Z,2.74
2023-01-28T00:26:15.183Z,2.80
2023-01-28T00:28:43.099Z,2.82
2023-01-28T00:31:17.006Z,2.91
2023-01-28T00:33:46.112Z,2.85
2023-01-28T00:36:14.357Z,2.92
2023-01-28T00:38:42.597Z,2.79
2023-01-28T00:41:16.696Z,2.88
2023-01-28T00:43:45.456Z,2.84
2023-01-28T00:46:14.180Z,3.13
2023-01-28T00:48:43.571Z,2.73
2023-01-28T00:51:13.082Z,2.51
2023-01-28T00:53:40.720Z,2.63
2023-01-28T00:56:11.828Z,2.45
2023-01-28T00:58:38.920Z,2.60
2023-01-28T01:01:15.442Z,2.57
2023-01-28T01:03:42.955Z,2.58
2023-01-28T01:06:12.226Z,2.68
2023-01-28T01:08:42.866Z,2.73
2023-01-28T01:11:11.717Z,2.61
2023-01-28T01:13:39.067Z,2.56
2023-01-28T01:16:12.795Z,2.73
2023-01-28T01:18:43.426Z,2.62
2023-01-28T01:21:17.538Z,2.50
2023-01-28T01:23:45.185Z,2.54
2023-01-28T01:26:13.323Z,2.47
2023-01-28T01:28:40.410Z,2.66
2023-01-28T01:31:14.925Z,2.53
2023-01-28T01:33:47.616Z,2.52
2023-01-28T01:36:17.224Z,2.50
2023-01-28T01:38:44.218Z,2.50
2023-01-28T01:41:30.497Z,2.52
2023-01-28T01:44:03.785Z,2.55
2023-01-28T01:46:40.034Z,2.57
2023-01-28T01:49:26.198Z,2.60
2023-01-28T01:52:03.632Z,2.54
2023-01-28T01:54:32.352Z,2.61
2023-01-28T01:57:00.270Z,2.49
2023-01-28T01:59:30.341Z,2.44
2023-01-28T02:02:01.574Z,2.56
2023-01-28T02:04:40.301Z,2.49
2023-01-28T02:07:09.621Z,2.47
2023-01-28T02:09:38.381Z,2.38
2023-01-28T02:12:13.995Z,2.44
2023-01-28T02:15:17.259Z,2.34
2023-01-28T02:17:44.888Z,2.53
2023-01-28T02:20:26.044Z,2.33
2023-01-28T02:23:55.921Z,2.49
2023-01-28T02:27:10.383Z,2.46
2023-01-28T02:29:53.218Z,2.53
2023-01-28T02:32:53.669Z,2.49
2023-01-28T02:35:36.248Z,2.58
2023-01-28T02:38:16.705Z,2.60
2023-01-28T02:41:09.809Z,2.52
2023-01-28T02:43:46.364Z,2.51
2023-01-28T02:46:51.043Z,2.48
2023-01-28T02:49:56.603Z,2.41
2023-01-28T02:52:53.115Z,2.50
2023-01-28T02:56:00.965Z,2.46
2023-01-28T02:58:46.338Z,2.47
2023-01-28T03:01:39.259Z,2.52
2023-01-28T03:04:27.177Z,2.54
2023-01-28T03:06:58.530Z,2.39
2023-01-28T03:09:27.230Z,2.56
2023-01-28T03:12:25.734Z,2.55
2023-01-28T03:15:34.923Z,2.42
2023-01-28T03:18:37.009Z,2.42
2023-01-28T03:21:31.405Z,2.38
2023-01-28T03:24:27.490Z,2.36
2023-01-28T03:27:52.151Z,2.43
2023-01-28T03:30:48.159Z,2.50
2023-01-28T03:33:34.903Z,2.42
2023-01-28T03:36:21.659Z,2.43
2023-01-28T03:38:48.895Z,2.34
2023-01-28T03:41:26.987Z,2.31
2023-01-28T03:43:54.805Z,2.38
2023-01-28T03:46:21.887Z,2.42
2023-01-28T03:48:48.779Z,2.41
2023-01-28T03:51:16.637Z,2.36
2023-01-28T03:53:43.514Z,2.51
2023-01-28T03:56:18.508Z,2.37
2023-01-28T03:58:56.699Z,2.46
2023-01-28T04:01:24.323Z,2.46
2023-01-28T04:03:51.430Z,2.32
2023-01-28T04:06:18.377Z,2.33
2023-01-28T04:08:48.968Z,2.33
2023-01-28T04:11:16.018Z,2.38
2023-01-28T04:13:43.877Z,2.33
2023-01-28T04:16:12.517Z,2.37
2023-01-28T04:18:39.724Z,2.34
2023-01-28T04:21:06.712Z,2.32
2023-01-28T04:23:33.587Z,2.44
2023-01-28T04:26:00.550Z,2.44
2023-01-28T04:28:28.517Z,2.25
2023-01-28T04:30:55.410Z,2.34
2023-01-28T04:33:22.474Z,2.31
2023-01-28T04:35:49.435Z,2.25
2023-01-28T04:38:16.321Z,2.33
2023-01-28T04:40:43.204Z,2.30
2023-01-28T04:43:10.214Z,2.34
2023-01-28T04:45:37.207Z,2.40
2023-01-28T04:48:04.222Z,2.41
2023-01-28T04:50:31.148Z,2.41
2023-01-28T04:52:58.015Z,2.31
2023-01-28T04:55:25.034Z,2.24
2023-01-28T04:57:52.414Z,2.35
2023-01-28T05:00:19.783Z,2.41
2023-01-28T05:02:46.680Z,2.29
2023-01-28T05:05:13.922Z,2.25
2023-01-28T05:07:42.037Z,2.27
2023-01-28T05:10:10.071Z,2.24
2023-01-28T05:12:36.944Z,2.31
2023-01-28T05:15:04.916Z,2.26
2023-01-28T05:17:31.850Z,2.27
2023-01-28T05:19:58.867Z,2.32
2023-01-28T05:22:25.820Z,2.24
2023-01-28T05:24:52.720Z,2.26
2023-01-28T05:27:19.665Z,2.25
2023-01-28T05:29:46.659Z,2.29
2023-01-28T05:32:13.544Z,2.24
2023-01-28T05:34:40.439Z,2.32
2023-01-28T05:37:07.308Z,2.16
2023-01-28T05:39:34.299Z,2.09
2023-01-28T05:42:01.359Z,2.24
2023-01-28T05:44:28.223Z,2.04
2023-01-28T05:46:55.183Z,2.08
2023-01-28T05:49:22.345Z,2.05
2023-01-28T05:51:49.782Z,2.08
2023-01-28T05:54:16.753Z,2.17
2023-01-28T05:56:43.753Z,2.17
2023-01-28T05:59:12.174Z,2.17
2023-01-28T06:01:39.273Z,2.13
2023-01-28T06:04:06.304Z,2.12
2023-01-28T06:06:33.221Z,2.11
2023-01-28T06:09:00.260Z,2.16
2023-01-28T06:11:27.539Z,2.09
2023-01-28T06:13:54.530Z,2.04
2023-01-28T06:16:21.500Z,2.04
2023-01-28T06:18:48.404Z,2.00
2023-01-28T06:21:15.344Z,2.11
2023-01-28T06:23:42.234Z,2.08
2023-01-28T06:26:09.209Z,2.14
2023-01-28T06:28:36.211Z,2.03
2023-01-28T06:31:03.276Z,2.05
2023-01-28T06:33:30.296Z,2.04
2023-01-28T06:35:57.212Z,2.11
2023-01-28T06:38:24.357Z,2.08
2023-01-28T06:40:53.359Z,2.13
2023-01-28T06:43:20.282Z,2.14
2023-01-28T06:45:47.159Z,2.07
2023-01-28T06:48:14.114Z,2.09
2023-01-28T06:50:41.003Z,2.17
2023-01-28T06:53:07.876Z,2.09
2023-01-28T06:55:34.873Z,2.09
2023-01-28T06:58:01.835Z,2.14
2023-01-28T07:00:28.771Z,2.21
2023-01-28T07:02:57.360Z,2.25
2023-01-28T07:05:25.544Z,2.15
2023-01-28T07:07:52.659Z,2.11
2023-01-28T07:10:19.644Z,2.20
2023-01-28T07:12:46.537Z,2.18
2023-01-28T07:15:15.150Z,2.09
2023-01-28T07:17:42.557Z,2.18
2023-01-28T07:20:12.803Z,2.14
2023-01-28T07:22:42.197Z,2.15
2023-01-28T07:25:10.167Z,2.21
2023-01-28T07:27:37.155Z,2.04
2023-01-28T07:30:05.410Z,2.20
2023-01-28T07:32:32.414Z,2.13
2023-01-28T07:34:59.401Z,2.16
2023-01-28T07:37:26.273Z,2.12
2023-01-28T07:39:53.277Z,2.13
2023-01-28T07:42:20.260Z,2.10
2023-01-28T07:44:47.248Z,2.15
2023-01-28T07:47:14.339Z,2.21
2023-01-28T07:49:41.517Z,2.11
2023-01-28T07:52:09.484Z,2.22
2023-01-28T07:54:36.404Z,2.22
2023-01-28T07:57:09.817Z,2.17
2023-01-28T07:59:36.996Z,2.26
2023-01-28T08:02:04.970Z,2.17
2023-01-28T08:04:32.007Z,2.20
2023-01-28T08:06:58.995Z,2.25
2023-01-28T08:09:25.947Z,2.19
2023-01-28T08:11:53.328Z,2.24
2023-01-28T08:14:20.297Z,2.20
2023-01-28T08:16:48.192Z,2.21
2023-01-28T08:19:15.411Z,2.13
2023-01-28T08:21:42.279Z,2.25
2023-01-28T08:24:09.389Z,2.29
2023-01-28T08:26:36.473Z,2.27
2023-01-28T08:29:03.573Z,2.22
2023-01-28T08:31:30.564Z,2.26
2023-01-28T08:33:57.431Z,2.31
2023-01-28T08:36:24.349Z,2.32
2023-01-28T08:38:55.009Z,2.34
2023-01-28T08:41:22.990Z,2.32
2023-01-28T08:43:50.208Z,2.30
2023-01-28T08:46:17.243Z,2.36
2023-01-28T08:48:44.162Z,2.52
2023-01-28T08:51:11.102Z,2.45
2023-01-28T08:53:38.081Z,2.54
2023-01-28T08:56:05.540Z,2.57
2023-01-28T08:58:32.605Z,2.58
2023-01-28T09:01:05.960Z,2.56
2023-01-28T09:03:33.523Z,2.67
2023-01-28T09:06:02.860Z,2.73
2023-01-28T09:08:29.764Z,2.74
2023-01-28T09:10:58.205Z,2.56
2023-01-28T09:13:25.981Z,2.64
2023-01-28T09:15:53.317Z,2.60
2023-01-28T09:18:20.445Z,2.74
2023-01-28T09:20:47.529Z,2.65
2023-01-28T09:23:14.959Z,2.66
2023-01-28T09:25:42.227Z,2.65
2023-01-28T09:28:09.378Z,2.62
2023-01-28T09:30:38.002Z,2.62
2023-01-28T09:33:06.089Z,2.62
2023-01-28T09:35:34.319Z,2.57
2023-01-28T09:38:01.281Z,2.61
2023-01-28T09:40:41.049Z,2.64
2023-01-28T09:43:41.165Z,2.59
2023-01-28T09:46:18.597Z,2.55
2023-01-28T09:48:52.948Z,2.79
2023-01-28T09:51:33.992Z,2.63
2023-01-28T09:54:42.437Z,2.59
2023-01-28T09:57:42.963Z,2.62
2023-01-28T10:00:20.043Z,2.68
2023-01-28T10:03:22.516Z,2.71
2023-01-28T10:06:15.609Z,2.72
2023-01-28T10:09:21.400Z,2.83
2023-01-28T10:12:11.338Z,2.88
2023-01-28T10:15:17.781Z,2.81
2023-01-28T10:17:49.834Z,2.93
2023-01-28T10:20:52.439Z,3.06
2023-01-28T10:23:27.422Z,3.06
2023-01-28T10:25:57.933Z,3.15
2023-01-28T10:28:30.593Z,2.93
2023-01-28T10:30:57.689Z,3.10
2023-01-28T10:33:37.783Z,3.02
2023-01-28T10:36:05.593Z,3.03
2023-01-28T10:38:32.723Z,2.97
2023-01-28T10:41:05.066Z,2.98
2023-01-28T10:43:42.987Z,2.92
2023-01-28T10:46:19.783Z,2.95
2023-01-28T10:49:07.272Z,2.92
2023-01-28T10:51:40.756Z,2.93
2023-01-28T10:54:24.988Z,2.97
2023-01-28T10:57:02.604Z,2.89
2023-01-28T10:59:41.802Z,2.96
2023-01-28T11:02:36.951Z,2.93
2023-01-28T11:05:27.309Z,3.11
2023-01-28T11:08:15.567Z,3.01
2023-01-28T11:10:43.890Z,3.00
2023-01-28T11:13:22.801Z,3.22
2023-01-28T11:15:59.100Z,3.22
2023-01-28T11:18:29.800Z,3.26
2023-01-28T11:21:03.931Z,3.25
2023-01-28T11:23:38.651Z,3.36
2023-01-28T11:26:23.735Z,3.26
2023-01-28T11:28:51.203Z,3.23
2023-01-28T11:31:19.392Z,3.24
2023-01-28T11:33:53.775Z,3.30
2023-01-28T11:36:24.742Z,3.13
2023-01-28T11:39:24.650Z,3.24
2023-01-28T11:41:52.453Z,3.16
2023-01-28T11:44:25.623Z,3.21
2023-01-28T11:47:22.801Z,3.07
2023-01-28T11:50:32.878Z,3.12
2023-01-28T11:53:32.872Z,3.27
2023-01-28T11:56:38.480Z,3.22
2023-01-28T11:59:59.785Z,3.19
2023-01-28T12:03:02.925Z,3.25
2023-01-28T12:05:53.794Z,3.30
2023-01-28T12:09:00.434Z,3.31
2023-01-28T12:12:11.926Z,3.28
2023-01-28T12:15:20.345Z,3.27
2023-01-28T12:18:18.567Z,3.26
2023-01-28T12:21:11.380Z,3.27
2023-01-28T12:24:18.178Z,3.19
2023-01-28T12:27:04.390Z,3.23
2023-01-28T12:29:50.425Z,3.31
2023-01-28T12:33:10.607Z,3.33
2023-01-28T12:36:16.537Z,3.24
2023-01-28T12:39:21.010Z,3.27
2023-01-28T12:42:18.387Z,3.34
2023-01-28T12:44:57.510Z,3.22
2023-01-28T12:47:36.569Z,3.29
2023-01-28T12:50:19.367Z,3.36
2023-01-28T12:53:32.849Z,3.39
2023-01-28T12:56:34.129Z,3.39
2023-01-28T12:59:11.610Z,3.44
2023-01-28T13:02:14.504Z,3.45
2023-01-28T13:04:53.269Z,3.41
2023-01-28T13:07:44.489Z,3.52
2023-01-28T13:10:36.670Z,3.46
2023-01-28T13:13:05.762Z,3.51
2023-01-28T13:15:36.933Z,3.33
2023-01-28T13:18:05.979Z,3.34
2023-01-28T13:20:47.758Z,3.29
2023-01-28T13:23:39.224Z,3.28
2023-01-28T13:26:24.625Z,3.32
2023-01-28T13:28:53.340Z,3.26
2023-01-28T13:31:24.449Z,3.30
2023-01-28T13:33:54.325Z,3.30
2023-01-28T13:36:30.227Z,3.36
2023-01-28T13:39:19.535Z,3.35
2023-01-28T13:41:52.835Z,3.37
2023-01-28T13:44:32.565Z,3.36
2023-01-28T13:47:24.692Z,3.25
2023-01-28T13:49:57.856Z,3.22
2023-01-28T13:52:44.563Z,3.12
2023-01-28T13:55:11.325Z,3.26
2023-01-28T13:57:56.293Z,3.33
2023-01-28T14:00:48.003Z,3.22
2023-01-28T14:04:15.194Z,3.23
2023-01-28T14:07:01.020Z,3.21
2023-01-28T14:09:53.711Z,3.23
2023-01-28T14:13:01.365Z,3.23
2023-01-28T14:16:14.064Z,3.22
2023-01-28T14:18:45.737Z,3.09
2023-01-28T14:21:18.857Z,3.07
2023-01-28T14:23:50.086Z,3.02
2023-01-28T14:26:34.778Z,3.00
2023-01-28T14:29:16.581Z,3.07
2023-01-28T14:31:43.743Z,3.02
2023-01-28T14:34:29.817Z,3.04
2023-01-28T14:37:10.203Z,2.97
2023-01-28T14:40:06.615Z,2.97
2023-01-28T14:42:40.715Z,2.98
2023-01-28T14:45:45.322Z,2.97
2023-01-28T14:48:21.107Z,2.88
2023-01-28T14:51:21.168Z,2.88
2023-01-28T14:54:18.541Z,2.84
2023-01-28T14:57:35.799Z,2.84
2023-01-28T15:00:02.948Z,2.82
2023-01-28T15:02:31.790Z,2.88
2023-01-28T15:05:23.212Z,2.87
2023-01-28T15:07:50.960Z,2.79
2023-01-28T15:10:20.794Z,2.78
2023-01-28T15:12:56.443Z,2.76
2023-01-28T15:15:46.792Z,2.77
2023-01-28T15:18:23.398Z,2.72
2023-01-28T15:20:56.190Z,2.69
2023-01-28T15:23:35.549Z,2.71
2023-01-28T15:26:24.952Z,2.70
2023-01-28T15:28:53.404Z,2.58
2023-01-28T15:31:28.740Z,2.59
2023-01-28T15:34:14.714Z,2.62
2023-01-28T15:36:42.591Z,2.56
2023-01-28T15:39:22.087Z,2.48
2023-01-28T15:42:01.414Z,2.48
2023-01-28T15:44:43.896Z,2.49
2023-01-28T15:47:24.225Z,2.41
2023-01-28T15:49:55.767Z,2.29
2023-01-28T15:52:34.393Z,2.25
2023-01-28T15:55:04.452Z,2.22
2023-01-28T15:57:37.180Z,2.21
2023-01-28T16:00:07.008Z,2.22
2023-01-28T16:02:34.526Z,2.19
2023-01-28T16:05:10.962Z,2.25
2023-01-28T16:07:46.357Z,2.18
2023-01-28T16:10:27.118Z,2.14
2023-01-28T16:13:20.032Z,2.20
2023-01-28T16:15:49.678Z,2.18
2023-01-28T16:18:49.085Z,2.19
2023-01-28T16:21:29.911Z,2.17
2023-01-28T16:24:18.504Z,2.03
2023-01-28T16:27:03.042Z,1.98
2023-01-28T16:29:31.349Z,2.03
2023-01-28T16:32:00.032Z,2.06
2023-01-28T16:34:27.722Z,2.08
2023-01-28T16:37:01.668Z,2.13
2023-01-28T16:39:29.929Z,2.08
2023-01-28T16:41:57.080Z,1.94
2023-01-28T16:44:24.054Z,2.03
2023-01-28T16:46:51.433Z,2.03
2023-01-28T16:49:18.461Z,2.02
2023-01-28T16:51:45.371Z,1.99
2023-01-28T16:54:16.110Z,1.86
2023-01-28T16:56:46.494Z,1.97
2023-01-28T16:59:15.950Z,1.82
2023-01-28T17:01:46.962Z,1.77
2023-01-28T17:04:14.305Z,1.84
2023-01-28T17:06:44.319Z,1.71
2023-01-28T17:09:14.516Z,1.79
2023-01-28T17:11:42.083Z,1.70
2023-01-28T17:14:11.202Z,1.78
2023-01-28T17:16:38.598Z,1.73
2023-01-28T17:19:06.807Z,1.68
2023-01-28T17:21:33.923Z,1.75
2023-01-28T17:24:01.651Z,1.75
2023-01-28T17:26:31.861Z,1.65
2023-01-28T17:28:58.842Z,1.68
2023-01-28T17:31:26.460Z,1.61
2023-01-28T17:33:55.863Z,1.53
2023-01-28T17:36:24.513Z,1.59
2023-01-28T17:38:52.344Z,1.60
2023-01-28T17:41:19.619Z,1.56
2023-01-28T17:43:54.883Z,1.61
2023-01-28T17:46:24.143Z,1.54
2023-01-28T17:48:52.982Z,1.63
2023-01-28T17:51:20.424Z,1.66
2023-01-28T17:53:49.453Z,1.69
2023-01-28T17:56:22.877Z,1.65
2023-01-28T17:58:58.187Z,1.62
2023-01-28T18:01:26.455Z,1.47
2023-01-28T18:03:54.952Z,1.47
2023-01-28T18:06:22.292Z,1.42
2023-01-28T18:08:49.347Z,1.40
2023-01-28T18:11:19.574Z,1.47
2023-01-28T18:13:47.188Z,1.47
2023-01-28T18:16:18.056Z,1.38
2023-01-28T18:18:47.279Z,1.41
2023-01-28T18:21:51.259Z,1.43
2023-01-28T18:24:19.852Z,1.46
2023-01-28T18:26:46.871Z,1.32
2023-01-28T18:29:16.883Z,1.35
2023-01-28T18:31:44.207Z,1.32
2023-01-28T18:34:11.247Z,1.30
2023-01-28T18:36:38.141Z,1.24
2023-01-28T18:39:05.223Z,1.18
2023-01-28T18:41:32.143Z,1.15
2023-01-28T18:43:59.023Z,1.13
2023-01-28T18:46:26.105Z,1.27
2023-01-28T18:48:53.061Z,1.24
2023-01-28T18:51:30.161Z,1.19
2023-01-28T18:54:03.945Z,1.06
2023-01-28T18:56:32.093Z,1.11
2023-01-28T18:59:04.580Z,1.07
2023-01-28T19:01:34.343Z,1.03
2023-01-28T19:04:02.025Z,1.01
2023-01-28T19:06:30.794Z,1.09
2023-01-28T19:09:01.120Z,1.10
2023-01-28T19:11:30.190Z,1.11
2023-01-28T19:13:57.174Z,1.11
2023-01-28T19:16:25.362Z,1.04
2023-01-28T19:18:58.149Z,1.04
2023-01-28T19:21:27.119Z,1.04
2023-01-28T19:24:09.421Z,0.97
2023-01-28T19:26:38.013Z,0.92
2023-01-28T19:29:09.374Z,0.93
2023-01-28T19:31:37.545Z,0.97
2023-01-28T19:34:06.858Z,0.95
2023-01-28T19:36:35.176Z,0.95
2023-01-28T19:39:06.969Z,0.95
2023-01-28T19:41:34.877Z,0.81
2023-01-28T19:44:02.265Z,0.86
2023-01-28T19:46:29.341Z,0.75
2023-01-28T19:48:56.517Z,0.84
2023-01-28T19:51:24.389Z,0.91
2023-01-28T19:53:53.642Z,0.84
2023-01-28T19:56:24.674Z,0.83
2023-01-28T19:58:54.711Z,0.78
2023-01-28T20:01:30.259Z,0.83
2023-01-28T20:04:00.077Z,0.84
2023-01-28T20:06:29.368Z,0.77
2023-01-28T20:09:14.378Z,0.84
2023-01-28T20:11:41.348Z,0.80
2023-01-28T20:14:08.222Z,0.79
2023-01-28T20:16:37.576Z,0.69
2023-01-28T20:19:07.982Z,0.77
2023-01-28T20:21:36.240Z,0.73
2023-01-28T20:24:04.454Z,0.77
2023-01-28T20:26:35.232Z,0.78
2023-01-28T20:29:11.591Z,0.69
2023-01-28T20:31:39.804Z,0.71
2023-01-28T20:34:07.989Z,0.80
2023-01-28T20:36:34.983Z,0.77
2023-01-28T20:39:02.000Z,0.72
2023-01-28T20:41:28.936Z,0.78
2023-01-28T20:43:56.541Z,0.72
2023-01-28T20:46:28.014Z,0.78
2023-01-28T20:48:57.458Z,0.78
2023-01-28T20:51:27.902Z,0.82
2023-01-28T20:53:55.576Z,0.81
2023-01-28T20:56:25.516Z,0.77
2023-01-28T20:58:59.377Z,0.74
2023-01-28T21:01:30.596Z,0.71
2023-01-28T21:03:57.611Z,0.79
2023-01-28T21:06:25.512Z,0.73
2023-01-28T21:08:53.176Z,0.69
2023-01-28T21:11:22.418Z,0.69
2023-01-28T21:13:49.541Z,0.72
2023-01-28T21:16:17.615Z,0.73
2023-01-28T21:18:44.843Z,0.78
2023-01-28T21:21:25.765Z,0.85
2023-01-28T21:23:57.921Z,0.80
2023-01-28T21:26:25.287Z,0.76
2023-01-28T21:28:52.463Z,0.71
2023-01-28T21:31:23.063Z,0.69
2023-01-28T21:33:55.577Z,0.66
2023-01-28T21:36:24.085Z,0.63
2023-01-28T21:38:58.853Z,0.69
2023-01-28T21:41:26.772Z,0.61
2023-01-28T21:43:55.303Z,0.65
2023-01-28T21:46:30.683Z,0.63
2023-01-28T21:49:03.491Z,0.71
2023-01-28T21:51:36.130Z,0.58
2023-01-28T21:54:09.565Z,0.69
2023-01-28T21:56:36.508Z,0.69
2023-01-28T21:59:22.290Z,0.59
2023-01-28T22:01:49.638Z,0.82
2023-01-28T22:04:16.721Z,0.80
2023-01-28T22:06:45.106Z,0.71
2023-01-28T22:09:13.590Z,0.73
2023-01-28T22:11:42.316Z,0.74
2023-01-28T22:14:10.306Z,0.65
2023-01-28T22:16:37.400Z,0.71
2023-01-28T22:19:05.231Z,0.71
2023-01-28T22:21:32.463Z,0.85
2023-01-28T22:23:59.500Z,0.70
2023-01-28T22:26:26.568Z,0.65
2023-01-28T22:28:53.551Z,0.72
2023-01-28T22:31:20.579Z,0.72
2023-01-28T22:33:47.546Z,0.81
2023-01-28T22:36:16.260Z,0.66
2023-01-28T22:38:45.020Z,0.70
2023-01-28T22:41:23.198Z,0.65
2023-01-28T22:43:52.508Z,0.74
2023-01-28T22:46:21.830Z,0.67
2023-01-28T22:48:49.575Z,0.70
2023-01-28T22:51:42.628Z,0.58
2023-01-28T22:54:11.920Z,0.55
2023-01-28T22:56:40.206Z,0.52
2023-01-28T22:59:07.174Z,0.48
2023-01-28T23:01:39.080Z,0.55
2023-01-28T23:04:05.957Z,0.47
2023-01-28T23:06:33.728Z,0.61
2023-01-28T23:09:00.679Z,0.54
2023-01-28T23:11:28.322Z,0.67
2023-01-28T23:14:20.952Z,0.72
2023-01-28T23:17:07.510Z,0.64
2023-01-28T23:19:53.798Z,0.47
2023-01-28T23:22:47.227Z,0.57
2023-01-28T23:25:14.864Z,0.27
2023-01-28T23:27:42.636Z,0.38
2023-01-28T23:30:11.833Z,0.25
2023-01-28T23:32:48.689Z,0.17
2023-01-28T23:35:17.220Z,0.19
2023-01-28T23:37:44.375Z,0.28
2023-01-28T23:40:12.670Z,0.13
2023-01-28T23:42:39.649Z,0.06
2023-01-28T23:45:07.672Z,0.27
2023-01-28T23:47:34.542Z,0.14
2023-01-28T23:50:01.944Z,0.32
2023-01-28T23:52:29.048Z,0.18
2023-01-28T23:54:56.210Z,0.26
2023-01-28T23:57:23.190Z,0.01
2023-01-28T23:59:51.444Z,0.01
